sensor_id;sensor_type;location;lat;lon;timestamp;temperature;humidity
3005;DHT22;1512;51.486;6.610;2022-08-21T00:03:08;18.70;99.90
3005;DHT22;1512;51.486;6.610;2022-08-21T00:07:18;18.70;99.90
3005;DHT22;1512;51.486;6.610;2022-08-21T00:11:27;18.50;99.90
3005;DHT22;1512;51.486;6.610;2022-08-21T00:15:37;18.50;99.90
3005;DHT22;1512;51.486;6.610;2022-08-21T00:19:46;18.50;99.90
3005;DHT22;1512;51.486;6.610;2022-08-21T00:23:54;18.50;99.90
3005;DHT22;1512;51.486;6.610;2022-08-21T00:28:04;18.40;99.90
3005;DHT22;1512;51.486;6.610;2022-08-21T00:32:22;18.40;99.90
3005;DHT22;1512;51.486;6.610;2022-08-21T00:36:31;18.30;99.90
3005;DHT22;1512;51.486;6.610;2022-08-21T00:40:43;18.20;99.90
3005;DHT22;1512;51.486;6.610;2022-08-21T00:44:51;18.20;99.90
3005;DHT22;1512;51.486;6.610;2022-08-21T00:49:00;18.10;99.90
3005;DHT22;1512;51.486;6.610;2022-08-21T00:53:10;18.10;99.90
3005;DHT22;1512;51.486;6.610;2022-08-21T00:57:24;18.00;99.90
3005;DHT22;1512;51.486;6.610;2022-08-21T01:01:34;18.00;99.90
3005;DHT22;1512;51.486;6.610;2022-08-21T01:05:44;17.90;99.90
3005;DHT22;1512;51.486;6.610;2022-08-21T01:09:53;17.90;99.90
3005;DHT22;1512;51.486;6.610;2022-08-21T01:14:02;17.80;99.90
3005;DHT22;1512;51.486;6.610;2022-08-21T01:18:12;17.80;99.90
3005;DHT22;1512;51.486;6.610;2022-08-21T01:22:22;17.80;99.90
3005;DHT22;1512;51.486;6.610;2022-08-21T01:26:32;17.80;99.90
3005;DHT22;1512;51.486;6.610;2022-08-21T01:30:43;17.80;99.90
3005;DHT22;1512;51.486;6.610;2022-08-21T01:34:52;17.70;99.90
3005;DHT22;1512;51.486;6.610;2022-08-21T01:39:03;17.70;99.90
3005;DHT22;1512;51.486;6.610;2022-08-21T01:43:12;17.60;99.90
3005;DHT22;1512;51.486;6.610;2022-08-21T01:47:21;17.60;99.90
3005;DHT22;1512;51.486;6.610;2022-08-21T01:51:29;17.60;99.90
3005;DHT22;1512;51.486;6.610;2022-08-21T01:55:38;17.50;99.90
3005;DHT22;1512;51.486;6.610;2022-08-21T01:59:47;17.50;99.90
3005;DHT22;1512;51.486;6.610;2022-08-21T02:03:56;17.40;99.90
3005;DHT22;1512;51.486;6.610;2022-08-21T02:08:06;17.40;99.90
3005;DHT22;1512;51.486;6.610;2022-08-21T02:12:34;17.40;99.90
3005;DHT22;1512;51.486;6.610;2022-08-21T02:16:44;17.40;99.90
3005;DHT22;1512;51.486;6.610;2022-08-21T02:20:54;17.30;99.90
3005;DHT22;1512;51.486;6.610;2022-08-21T02:25:04;17.30;99.90
3005;DHT22;1512;51.486;6.610;2022-08-21T02:29:12;17.20;99.90
3005;DHT22;1512;51.486;6.610;2022-08-21T02:33:22;17.10;99.90
3005;DHT22;1512;51.486;6.610;2022-08-21T02:37:31;17.10;99.90
3005;DHT22;1512;51.486;6.610;2022-08-21T02:41:39;17.10;99.90
3005;DHT22;1512;51.486;6.610;2022-08-21T02:45:50;17.10;99.90
3005;DHT22;1512;51.486;6.610;2022-08-21T02:54:20;17.00;99.90
3005;DHT22;1512;51.486;6.610;2022-08-21T02:58:31;17.00;99.90
3005;DHT22;1512;51.486;6.610;2022-08-21T03:02:41;17.10;99.90
3005;DHT22;1512;51.486;6.610;2022-08-21T03:06:49;17.10;99.90
3005;DHT22;1512;51.486;6.610;2022-08-21T03:10:58;17.20;99.90
3005;DHT22;1512;51.486;6.610;2022-08-21T03:15:27;17.20;99.90
3005;DHT22;1512;51.486;6.610;2022-08-21T03:19:36;17.20;99.90
3005;DHT22;1512;51.486;6.610;2022-08-21T03:23:44;17.20;99.90
3005;DHT22;1512;51.486;6.610;2022-08-21T03:27:54;17.20;99.90
3005;DHT22;1512;51.486;6.610;2022-08-21T03:32:05;17.20;99.90
3005;DHT22;1512;51.486;6.610;2022-08-21T03:36:16;17.10;99.90
3005;DHT22;1512;51.486;6.610;2022-08-21T03:40:25;17.00;99.90
3005;DHT22;1512;51.486;6.610;2022-08-21T03:44:35;16.90;99.90
3005;DHT22;1512;51.486;6.610;2022-08-21T03:49:03;16.80;99.90
3005;DHT22;1512;51.486;6.610;2022-08-21T03:53:13;16.70;99.90
3005;DHT22;1512;51.486;6.610;2022-08-21T03:57:24;16.70;99.90
3005;DHT22;1512;51.486;6.610;2022-08-21T04:01:33;16.80;99.90
3005;DHT22;1512;51.486;6.610;2022-08-21T04:05:42;16.80;99.90
3005;DHT22;1512;51.486;6.610;2022-08-21T04:09:52;16.80;99.90
3005;DHT22;1512;51.486;6.610;2022-08-21T04:14:01;16.70;99.90
3005;DHT22;1512;51.486;6.610;2022-08-21T04:18:10;16.70;99.90
3005;DHT22;1512;51.486;6.610;2022-08-21T04:22:20;16.70;99.90
3005;DHT22;1512;51.486;6.610;2022-08-21T04:26:28;16.70;99.90
3005;DHT22;1512;51.486;6.610;2022-08-21T04:30:38;16.70;99.90
3005;DHT22;1512;51.486;6.610;2022-08-21T04:34:47;16.70;99.90
3005;DHT22;1512;51.486;6.610;2022-08-21T04:38:55;16.60;99.90
3005;DHT22;1512;51.486;6.610;2022-08-21T04:43:07;16.60;99.90
3005;DHT22;1512;51.486;6.610;2022-08-21T04:47:16;16.60;99.90
3005;DHT22;1512;51.486;6.610;2022-08-21T04:51:44;16.70;99.90
3005;DHT22;1512;51.486;6.610;2022-08-21T04:55:54;16.70;99.90
3005;DHT22;1512;51.486;6.610;2022-08-21T05:00:05;16.70;99.90
3005;DHT22;1512;51.486;6.610;2022-08-21T05:04:18;16.60;99.90
3005;DHT22;1512;51.486;6.610;2022-08-21T05:08:28;16.60;99.90
3005;DHT22;1512;51.486;6.610;2022-08-21T05:12:36;16.60;99.90
3005;DHT22;1512;51.486;6.610;2022-08-21T05:16:46;16.50;99.90
3005;DHT22;1512;51.486;6.610;2022-08-21T05:20:54;16.50;99.90
3005;DHT22;1512;51.486;6.610;2022-08-21T05:25:05;16.50;99.90
3005;DHT22;1512;51.486;6.610;2022-08-21T05:29:16;16.50;99.90
3005;DHT22;1512;51.486;6.610;2022-08-21T05:33:26;16.50;99.90
3005;DHT22;1512;51.486;6.610;2022-08-21T05:37:35;16.50;99.90
3005;DHT22;1512;51.486;6.610;2022-08-21T05:41:44;16.50;99.90
3005;DHT22;1512;51.486;6.610;2022-08-21T05:45:52;16.50;99.90
3005;DHT22;1512;51.486;6.610;2022-08-21T05:50:01;16.50;99.90
3005;DHT22;1512;51.486;6.610;2022-08-21T05:54:11;16.50;99.90
3005;DHT22;1512;51.486;6.610;2022-08-21T05:58:21;16.60;99.90
3005;DHT22;1512;51.486;6.610;2022-08-21T06:02:30;16.60;99.90
3005;DHT22;1512;51.486;6.610;2022-08-21T06:06:39;16.60;99.90
3005;DHT22;1512;51.486;6.610;2022-08-21T06:10:49;16.60;99.90
3005;DHT22;1512;51.486;6.610;2022-08-21T06:14:57;16.60;99.90
3005;DHT22;1512;51.486;6.610;2022-08-21T06:19:06;16.60;99.90
3005;DHT22;1512;51.486;6.610;2022-08-21T06:23:15;16.80;99.90
3005;DHT22;1512;51.486;6.610;2022-08-21T06:27:23;16.80;99.90
3005;DHT22;1512;51.486;6.610;2022-08-21T06:31:33;16.80;99.90
3005;DHT22;1512;51.486;6.610;2022-08-21T06:35:42;16.80;99.90
3005;DHT22;1512;51.486;6.610;2022-08-21T06:39:50;16.90;99.90
3005;DHT22;1512;51.486;6.610;2022-08-21T06:43:59;16.90;99.90
3005;DHT22;1512;51.486;6.610;2022-08-21T06:48:27;17.00;99.90
3005;DHT22;1512;51.486;6.610;2022-08-21T06:52:38;17.10;99.90
3005;DHT22;1512;51.486;6.610;2022-08-21T06:56:47;17.20;99.90
3005;DHT22;1512;51.486;6.610;2022-08-21T07:00:55;17.30;99.90
3005;DHT22;1512;51.486;6.610;2022-08-21T07:05:06;17.40;99.90
3005;DHT22;1512;51.486;6.610;2022-08-21T07:09:17;17.50;99.90
3005;DHT22;1512;51.486;6.610;2022-08-21T07:13:28;17.60;99.90
3005;DHT22;1512;51.486;6.610;2022-08-21T07:17:36;17.80;99.90
3005;DHT22;1512;51.486;6.610;2022-08-21T07:21:45;17.80;99.90
3005;DHT22;1512;51.486;6.610;2022-08-21T07:25:55;18.00;99.90
3005;DHT22;1512;51.486;6.610;2022-08-21T07:30:05;18.10;99.90
3005;DHT22;1512;51.486;6.610;2022-08-21T07:34:14;18.20;99.90
3005;DHT22;1512;51.486;6.610;2022-08-21T07:38:23;18.30;99.90
3005;DHT22;1512;51.486;6.610;2022-08-21T07:42:32;18.30;99.90
3005;DHT22;1512;51.486;6.610;2022-08-21T07:46:40;18.40;99.90
3005;DHT22;1512;51.486;6.610;2022-08-21T07:50:50;18.50;99.90
3005;DHT22;1512;51.486;6.610;2022-08-21T07:54:59;18.60;99.90
3005;DHT22;1512;51.486;6.610;2022-08-21T07:59:09;18.70;99.90
3005;DHT22;1512;51.486;6.610;2022-08-21T08:03:18;18.70;99.90
3005;DHT22;1512;51.486;6.610;2022-08-21T08:07:28;18.80;99.90
3005;DHT22;1512;51.486;6.610;2022-08-21T08:11:40;18.90;99.90
3005;DHT22;1512;51.486;6.610;2022-08-21T08:15:51;19.00;99.90
3005;DHT22;1512;51.486;6.610;2022-08-21T08:20:00;19.20;99.90
3005;DHT22;1512;51.486;6.610;2022-08-21T08:24:10;19.30;99.90
3005;DHT22;1512;51.486;6.610;2022-08-21T08:28:20;19.50;99.90
3005;DHT22;1512;51.486;6.610;2022-08-21T08:32:29;19.60;99.90
3005;DHT22;1512;51.486;6.610;2022-08-21T08:36:38;19.80;99.90
3005;DHT22;1512;51.486;6.610;2022-08-21T08:40:55;20.00;99.90
3005;DHT22;1512;51.486;6.610;2022-08-21T08:45:12;20.20;99.90
3005;DHT22;1512;51.486;6.610;2022-08-21T08:49:30;20.30;99.90
3005;DHT22;1512;51.486;6.610;2022-08-21T08:53:49;20.40;99.90
3005;DHT22;1512;51.486;6.610;2022-08-21T08:57:58;20.50;99.90
3005;DHT22;1512;51.486;6.610;2022-08-21T09:02:11;20.60;99.90
3005;DHT22;1512;51.486;6.610;2022-08-21T09:11:45;20.80;99.90
3005;DHT22;1512;51.486;6.610;2022-08-21T09:24:22;21.40;99.90
3005;DHT22;1512;51.486;6.610;2022-08-21T09:28:35;21.60;99.90
3005;DHT22;1512;51.486;6.610;2022-08-21T09:32:44;21.70;99.90
3005;DHT22;1512;51.486;6.610;2022-08-21T09:36:53;21.80;99.90
3005;DHT22;1512;51.486;6.610;2022-08-21T09:41:04;21.90;99.90
3005;DHT22;1512;51.486;6.610;2022-08-21T09:45:16;22.00;99.90
3005;DHT22;1512;51.486;6.610;2022-08-21T09:49:36;22.20;99.90
3005;DHT22;1512;51.486;6.610;2022-08-21T09:53:51;22.40;99.90
3005;DHT22;1512;51.486;6.610;2022-08-21T09:57:59;22.20;99.90
3005;DHT22;1512;51.486;6.610;2022-08-21T10:02:28;22.20;99.90
3005;DHT22;1512;51.486;6.610;2022-08-21T10:06:37;22.40;99.90
3005;DHT22;1512;51.486;6.610;2022-08-21T10:10:54;22.60;99.90
3005;DHT22;1512;51.486;6.610;2022-08-21T10:15:36;22.80;99.90
3005;DHT22;1512;51.486;6.610;2022-08-21T10:28:23;23.10;99.90
3005;DHT22;1512;51.486;6.610;2022-08-21T10:32:50;23.30;99.90
3005;DHT22;1512;51.486;6.610;2022-08-21T10:50:38;23.40;99.90
3005;DHT22;1512;51.486;6.610;2022-08-21T10:54:54;23.50;99.90
3005;DHT22;1512;51.486;6.610;2022-08-21T10:59:28;23.40;99.90
3005;DHT22;1512;51.486;6.610;2022-08-21T11:03:42;23.30;99.90
3005;DHT22;1512;51.486;6.610;2022-08-21T11:07:57;23.40;99.90
3005;DHT22;1512;51.486;6.610;2022-08-21T11:12:23;23.50;99.90
3005;DHT22;1512;51.486;6.610;2022-08-21T11:16:37;23.80;99.90
3005;DHT22;1512;51.486;6.610;2022-08-21T11:25:39;24.20;99.90
3005;DHT22;1512;51.486;6.610;2022-08-21T11:29:55;24.40;99.30
3005;DHT22;1512;51.486;6.610;2022-08-21T11:34:22;24.40;99.90
3005;DHT22;1512;51.486;6.610;2022-08-21T11:38:55;24.50;98.70
3005;DHT22;1512;51.486;6.610;2022-08-21T11:43:50;24.70;97.20
3005;DHT22;1512;51.486;6.610;2022-08-21T11:56:35;24.70;95.40
3005;DHT22;1512;51.486;6.610;2022-08-21T12:00:52;24.40;94.70
3005;DHT22;1512;51.486;6.610;2022-08-21T12:05:09;24.60;96.30
3005;DHT22;1512;51.486;6.610;2022-08-21T12:09:29;24.70;95.20
3005;DHT22;1512;51.486;6.610;2022-08-21T12:13:51;24.80;95.90
3005;DHT22;1512;51.486;6.610;2022-08-21T12:17:55;24.90;92.90
3005;DHT22;1512;51.486;6.610;2022-08-21T12:26:25;25.10;93.50
3005;DHT22;1512;51.486;6.610;2022-08-21T12:30:36;25.20;92.50
3005;DHT22;1512;51.486;6.610;2022-08-21T12:39:26;25.80;89.50
3005;DHT22;1512;51.486;6.610;2022-08-21T12:43:59;25.80;86.70
3005;DHT22;1512;51.486;6.610;2022-08-21T12:53:05;25.60;85.00
3005;DHT22;1512;51.486;6.610;2022-08-21T12:57:05;25.50;83.90
3005;DHT22;1512;51.486;6.610;2022-08-21T13:05:37;25.80;81.40
3005;DHT22;1512;51.486;6.610;2022-08-21T13:09:57;26.00;82.10
3005;DHT22;1512;51.486;6.610;2022-08-21T13:14:08;25.90;81.60
3005;DHT22;1512;51.486;6.610;2022-08-21T13:18:22;25.70;79.70
3005;DHT22;1512;51.486;6.610;2022-08-21T13:22:39;25.60;83.40
3005;DHT22;1512;51.486;6.610;2022-08-21T13:26:44;25.90;81.50
3005;DHT22;1512;51.486;6.610;2022-08-21T13:30:54;25.90;81.90
3005;DHT22;1512;51.486;6.610;2022-08-21T13:39:21;26.10;78.50
3005;DHT22;1512;51.486;6.610;2022-08-21T13:43:35;26.10;77.60
3005;DHT22;1512;51.486;6.610;2022-08-21T13:47:46;25.80;74.30
3005;DHT22;1512;51.486;6.610;2022-08-21T13:51:55;25.30;77.60
3005;DHT22;1512;51.486;6.610;2022-08-21T13:56:04;25.20;78.70
3005;DHT22;1512;51.486;6.610;2022-08-21T14:04:36;24.80;80.60
3005;DHT22;1512;51.486;6.610;2022-08-21T14:08:56;24.70;81.60
3005;DHT22;1512;51.486;6.610;2022-08-21T14:13:06;24.70;82.90
3005;DHT22;1512;51.486;6.610;2022-08-21T14:17:31;24.70;80.20
3005;DHT22;1512;51.486;6.610;2022-08-21T14:21:41;24.90;80.10
3005;DHT22;1512;51.486;6.610;2022-08-21T14:25:57;25.20;78.10
3005;DHT22;1512;51.486;6.610;2022-08-21T14:30:17;25.60;78.30
3005;DHT22;1512;51.486;6.610;2022-08-21T14:34:28;25.90;75.40
3005;DHT22;1512;51.486;6.610;2022-08-21T14:38:40;26.00;73.40
3005;DHT22;1512;51.486;6.610;2022-08-21T14:42:49;26.00;72.70
3005;DHT22;1512;51.486;6.610;2022-08-21T14:46:58;25.80;73.80
3005;DHT22;1512;51.486;6.610;2022-08-21T14:51:07;25.80;74.00
3005;DHT22;1512;51.486;6.610;2022-08-21T14:55:19;25.90;74.30
3005;DHT22;1512;51.486;6.610;2022-08-21T14:59:27;26.10;73.30
3005;DHT22;1512;51.486;6.610;2022-08-21T15:03:37;25.90;72.20
3005;DHT22;1512;51.486;6.610;2022-08-21T15:07:46;25.80;74.90
3005;DHT22;1512;51.486;6.610;2022-08-21T15:11:57;25.90;71.80
3005;DHT22;1512;51.486;6.610;2022-08-21T15:16:08;26.00;69.20
3005;DHT22;1512;51.486;6.610;2022-08-21T15:20:18;26.10;67.40
3005;DHT22;1512;51.486;6.610;2022-08-21T15:24:27;26.20;67.40
3005;DHT22;1512;51.486;6.610;2022-08-21T15:28:36;26.00;65.10
3005;DHT22;1512;51.486;6.610;2022-08-21T15:32:48;26.00;67.00
3005;DHT22;1512;51.486;6.610;2022-08-21T15:36:58;26.00;63.10
3005;DHT22;1512;51.486;6.610;2022-08-21T15:41:06;26.00;62.50
3005;DHT22;1512;51.486;6.610;2022-08-21T15:45:15;25.90;64.60
3005;DHT22;1512;51.486;6.610;2022-08-21T15:49:24;25.90;63.90
3005;DHT22;1512;51.486;6.610;2022-08-21T15:53:32;25.90;62.30
3005;DHT22;1512;51.486;6.610;2022-08-21T15:57:45;25.90;60.60
3005;DHT22;1512;51.486;6.610;2022-08-21T16:01:56;25.80;62.70
3005;DHT22;1512;51.486;6.610;2022-08-21T16:06:05;25.60;62.70
3005;DHT22;1512;51.486;6.610;2022-08-21T16:10:17;25.40;59.70
3005;DHT22;1512;51.486;6.610;2022-08-21T16:14:27;25.20;57.60
3005;DHT22;1512;51.486;6.610;2022-08-21T16:18:37;25.00;58.80
3005;DHT22;1512;51.486;6.610;2022-08-21T16:22:46;24.90;62.10
3005;DHT22;1512;51.486;6.610;2022-08-21T16:26:55;24.80;58.90
3005;DHT22;1512;51.486;6.610;2022-08-21T16:31:05;24.60;58.00
3005;DHT22;1512;51.486;6.610;2022-08-21T16:35:18;24.60;59.00
3005;DHT22;1512;51.486;6.610;2022-08-21T16:39:27;24.50;58.70
3005;DHT22;1512;51.486;6.610;2022-08-21T16:43:55;24.50;58.90
3005;DHT22;1512;51.486;6.610;2022-08-21T16:48:03;24.60;60.20
3005;DHT22;1512;51.486;6.610;2022-08-21T16:52:14;24.60;62.20
3005;DHT22;1512;51.486;6.610;2022-08-21T16:56:23;24.60;64.40
3005;DHT22;1512;51.486;6.610;2022-08-21T17:00:32;24.60;62.50
3005;DHT22;1512;51.486;6.610;2022-08-21T17:04:41;24.60;65.00
3005;DHT22;1512;51.486;6.610;2022-08-21T17:08:50;24.50;64.00
3005;DHT22;1512;51.486;6.610;2022-08-21T17:12:59;24.30;64.70
3005;DHT22;1512;51.486;6.610;2022-08-21T17:17:11;24.20;65.90
3005;DHT22;1512;51.486;6.610;2022-08-21T17:21:20;24.10;66.20
3005;DHT22;1512;51.486;6.610;2022-08-21T17:25:30;24.00;66.70
3005;DHT22;1512;51.486;6.610;2022-08-21T17:29:39;24.00;67.80
3005;DHT22;1512;51.486;6.610;2022-08-21T17:33:50;23.90;67.50
3005;DHT22;1512;51.486;6.610;2022-08-21T17:37:59;23.90;67.70
3005;DHT22;1512;51.486;6.610;2022-08-21T17:42:11;23.90;67.50
3005;DHT22;1512;51.486;6.610;2022-08-21T17:46:23;23.80;67.80
3005;DHT22;1512;51.486;6.610;2022-08-21T17:50:35;23.70;68.60
3005;DHT22;1512;51.486;6.610;2022-08-21T17:54:45;23.60;68.90
3005;DHT22;1512;51.486;6.610;2022-08-21T17:58:54;23.50;69.10
3005;DHT22;1512;51.486;6.610;2022-08-21T18:03:15;23.50;70.20
3005;DHT22;1512;51.486;6.610;2022-08-21T18:07:24;23.50;71.00
3005;DHT22;1512;51.486;6.610;2022-08-21T18:11:35;23.40;72.50
3005;DHT22;1512;51.486;6.610;2022-08-21T18:15:46;23.30;72.30
3005;DHT22;1512;51.486;6.610;2022-08-21T18:19:56;23.30;73.30
3005;DHT22;1512;51.486;6.610;2022-08-21T18:24:06;23.20;73.90
3005;DHT22;1512;51.486;6.610;2022-08-21T18:28:15;23.10;74.50
3005;DHT22;1512;51.486;6.610;2022-08-21T18:32:26;22.90;75.00
3005;DHT22;1512;51.486;6.610;2022-08-21T18:36:37;22.90;76.10
3005;DHT22;1512;51.486;6.610;2022-08-21T18:40:49;22.80;77.10
3005;DHT22;1512;51.486;6.610;2022-08-21T18:45:02;22.70;77.80
3005;DHT22;1512;51.486;6.610;2022-08-21T18:49:11;22.60;78.70
3005;DHT22;1512;51.486;6.610;2022-08-21T18:53:19;22.60;79.30
3005;DHT22;1512;51.486;6.610;2022-08-21T18:57:30;22.50;80.30
3005;DHT22;1512;51.486;6.610;2022-08-21T19:01:39;22.50;81.20
3005;DHT22;1512;51.486;6.610;2022-08-21T19:05:49;22.50;82.50
3005;DHT22;1512;51.486;6.610;2022-08-21T19:09:58;22.40;82.60
3005;DHT22;1512;51.486;6.610;2022-08-21T19:14:11;22.40;84.40
3005;DHT22;1512;51.486;6.610;2022-08-21T19:18:24;22.30;87.00
3005;DHT22;1512;51.486;6.610;2022-08-21T19:22:35;22.20;86.20
3005;DHT22;1512;51.486;6.610;2022-08-21T19:26:44;22.10;86.20
3005;DHT22;1512;51.486;6.610;2022-08-21T19:31:02;22.00;87.70
3005;DHT22;1512;51.486;6.610;2022-08-21T19:35:15;21.90;89.00
3005;DHT22;1512;51.486;6.610;2022-08-21T19:39:26;21.90;89.00
3005;DHT22;1512;51.486;6.610;2022-08-21T19:43:40;21.80;89.70
3005;DHT22;1512;51.486;6.610;2022-08-21T19:47:49;21.80;90.00
3005;DHT22;1512;51.486;6.610;2022-08-21T19:51:59;21.80;90.60
3005;DHT22;1512;51.486;6.610;2022-08-21T19:56:13;21.70;91.10
3005;DHT22;1512;51.486;6.610;2022-08-21T20:00:22;21.70;91.80
3005;DHT22;1512;51.486;6.610;2022-08-21T20:04:31;21.70;92.10
3005;DHT22;1512;51.486;6.610;2022-08-21T20:08:40;21.70;92.40
3005;DHT22;1512;51.486;6.610;2022-08-21T20:12:50;21.60;93.10
3005;DHT22;1512;51.486;6.610;2022-08-21T20:17:07;21.60;93.90
3005;DHT22;1512;51.486;6.610;2022-08-21T20:21:17;21.60;94.20
3005;DHT22;1512;51.486;6.610;2022-08-21T20:25:27;21.60;95.40
3005;DHT22;1512;51.486;6.610;2022-08-21T20:29:37;21.60;97.10
3005;DHT22;1512;51.486;6.610;2022-08-21T20:33:46;21.60;99.70
3005;DHT22;1512;51.486;6.610;2022-08-21T20:37:56;21.60;99.90
3005;DHT22;1512;51.486;6.610;2022-08-21T20:42:08;21.60;99.90
3005;DHT22;1512;51.486;6.610;2022-08-21T20:46:21;21.50;99.90
3005;DHT22;1512;51.486;6.610;2022-08-21T20:50:33;21.40;99.90
3005;DHT22;1512;51.486;6.610;2022-08-21T20:54:58;21.30;99.90
3005;DHT22;1512;51.486;6.610;2022-08-21T21:03:54;21.20;99.90
3005;DHT22;1512;51.486;6.610;2022-08-21T21:12:42;21.10;99.90
3005;DHT22;1512;51.486;6.610;2022-08-21T21:16:56;21.10;99.90
3005;DHT22;1512;51.486;6.610;2022-08-21T21:21:27;21.10;99.90
3005;DHT22;1512;51.486;6.610;2022-08-21T21:25:31;21.10;99.90
3005;DHT22;1512;51.486;6.610;2022-08-21T21:29:49;21.00;99.90
3005;DHT22;1512;51.486;6.610;2022-08-21T21:33:58;21.00;99.90
3005;DHT22;1512;51.486;6.610;2022-08-21T21:38:50;21.00;99.90
3005;DHT22;1512;51.486;6.610;2022-08-21T21:43:00;20.90;99.90
3005;DHT22;1512;51.486;6.610;2022-08-21T21:55:49;20.80;99.90
3005;DHT22;1512;51.486;6.610;2022-08-21T22:00:01;20.70;99.90
3005;DHT22;1512;51.486;6.610;2022-08-21T22:04:36;20.70;99.90
3005;DHT22;1512;51.486;6.610;2022-08-21T22:08:49;20.60;99.90
3005;DHT22;1512;51.486;6.610;2022-08-21T22:13:21;20.60;99.90
3005;DHT22;1512;51.486;6.610;2022-08-21T22:17:46;20.50;99.90
3005;DHT22;1512;51.486;6.610;2022-08-21T22:22:14;20.50;99.90
3005;DHT22;1512;51.486;6.610;2022-08-21T22:26:30;20.40;99.90
3005;DHT22;1512;51.486;6.610;2022-08-21T22:30:44;20.40;99.90
3005;DHT22;1512;51.486;6.610;2022-08-21T22:35:01;20.40;99.90
3005;DHT22;1512;51.486;6.610;2022-08-21T22:39:15;20.30;99.90
3005;DHT22;1512;51.486;6.610;2022-08-21T22:43:24;20.30;99.90
3005;DHT22;1512;51.486;6.610;2022-08-21T22:47:39;20.30;99.90
3005;DHT22;1512;51.486;6.610;2022-08-21T22:52:32;20.20;99.90
3005;DHT22;1512;51.486;6.610;2022-08-21T22:56:40;20.10;99.90
3005;DHT22;1512;51.486;6.610;2022-08-21T23:05:33;20.00;99.90
3005;DHT22;1512;51.486;6.610;2022-08-21T23:09:46;20.00;99.90
3005;DHT22;1512;51.486;6.610;2022-08-21T23:13:57;19.90;99.90
3005;DHT22;1512;51.486;6.610;2022-08-21T23:18:13;19.90;99.90
3005;DHT22;1512;51.486;6.610;2022-08-21T23:36:05;19.70;99.90
3005;DHT22;1512;51.486;6.610;2022-08-21T23:40:46;19.70;99.90
3005;DHT22;1512;51.486;6.610;2022-08-21T23:50:10;19.60;99.90
